createdAt,value
2023-05-08T00:00:53.296Z,23.19
2023-05-08T00:01:53.248Z,23.20
2023-05-08T00:02:53.232Z,23.19
2023-05-08T00:03:53.630Z,23.19
2023-05-08T00:04:53.216Z,23.19
2023-05-08T00:05:53.227Z,23.19
2023-05-08T00:06:53.224Z,23.20
2023-05-08T00:07:53.207Z,23.19
2023-05-08T00:08:53.230Z,23.19
2023-05-08T00:09:53.210Z,23.19
2023-05-08T00:10:53.218Z,23.19
2023-05-08T00:11:53.241Z,23.19
2023-05-08T00:12:53.255Z,23.19
2023-05-08T00:13:53.236Z,23.18
2023-05-08T00:14:53.238Z,23.19
2023-05-08T00:15:53.247Z,23.19
2023-05-08T00:16:53.298Z,23.18
2023-05-08T00:17:53.313Z,23.18
2023-05-08T00:18:53.266Z,23.18
2023-05-08T00:19:53.264Z,23.18
2023-05-08T00:20:53.304Z,23.18
2023-05-08T00:21:53.708Z,23.18
2023-05-08T00:22:53.279Z,23.18
2023-05-08T00:23:53.325Z,23.18
2023-05-08T00:24:53.278Z,23.18
2023-05-08T00:25:53.303Z,23.18
2023-05-08T00:26:53.299Z,23.18
2023-05-08T00:27:53.299Z,23.17
2023-05-08T00:28:53.354Z,23.16
2023-05-08T00:29:53.366Z,23.17
2023-05-08T00:30:53.336Z,23.17
2023-05-08T00:31:53.384Z,23.16
2023-05-08T00:32:53.416Z,23.17
2023-05-08T00:33:53.404Z,23.16
2023-05-08T00:34:53.378Z,23.16
2023-05-08T00:35:53.384Z,23.16
2023-05-08T00:36:53.452Z,23.17
2023-05-08T00:37:53.415Z,23.16
2023-05-08T00:38:53.440Z,23.16
2023-05-08T00:39:53.450Z,23.16
2023-05-08T00:40:53.424Z,23.17
2023-05-08T00:41:53.452Z,23.16
2023-05-08T00:42:53.444Z,23.16
2023-05-08T00:43:53.450Z,23.16
2023-05-08T00:44:53.530Z,23.16
2023-05-08T00:45:53.474Z,23.16
2023-05-08T00:46:53.482Z,23.17
2023-05-08T00:47:53.499Z,23.17
2023-05-08T00:48:53.476Z,23.17
2023-05-08T00:49:53.488Z,23.17
2023-05-08T00:50:53.502Z,23.16
2023-05-08T00:51:53.494Z,23.16
2023-05-08T00:52:53.502Z,23.16
2023-05-08T00:53:53.505Z,23.16
2023-05-08T00:54:53.531Z,23.16
2023-05-08T00:55:53.548Z,23.15
2023-05-08T00:56:53.558Z,23.15
2023-05-08T00:57:53.544Z,23.15
2023-05-08T00:58:53.550Z,23.15
2023-05-08T00:59:53.563Z,23.16
2023-05-08T01:00:53.585Z,23.15
2023-05-08T01:01:53.667Z,23.15
2023-05-08T01:02:53.642Z,23.15
2023-05-08T01:03:53.767Z,23.16
2023-05-08T01:04:53.582Z,23.15
2023-05-08T01:05:53.617Z,23.15
2023-05-08T01:06:53.645Z,23.16
2023-05-08T01:07:53.637Z,23.15
2023-05-08T01:08:53.620Z,23.15
2023-05-08T01:09:53.660Z,23.15
2023-05-08T01:10:53.660Z,23.15
2023-05-08T01:11:53.674Z,23.15
2023-05-08T01:12:53.668Z,23.14
2023-05-08T01:13:53.669Z,23.15
2023-05-08T01:14:53.678Z,23.14
2023-05-08T01:15:53.728Z,23.14
2023-05-08T01:16:53.706Z,23.14
2023-05-08T01:17:53.813Z,23.15
2023-05-08T01:18:53.721Z,23.15
2023-05-08T01:19:53.755Z,23.15
2023-05-08T01:20:53.765Z,23.14
2023-05-08T01:21:53.771Z,23.15
2023-05-08T01:22:53.793Z,23.14
2023-05-08T01:23:53.788Z,23.15
2023-05-08T01:24:53.798Z,23.14
2023-05-08T01:25:53.814Z,23.14
2023-05-08T01:26:53.838Z,23.14
2023-05-08T01:27:53.849Z,23.14
2023-05-08T01:28:53.854Z,23.14
2023-05-08T01:29:53.843Z,23.14
2023-05-08T01:30:53.874Z,23.14
2023-05-08T01:31:53.913Z,23.14
2023-05-08T01:32:53.996Z,23.14
2023-05-08T01:33:53.921Z,23.14
2023-05-08T01:34:53.948Z,23.14
2023-05-08T01:35:53.914Z,23.13
2023-05-08T01:36:53.946Z,23.14
2023-05-08T01:37:53.929Z,23.13
2023-05-08T01:38:53.980Z,23.13
2023-05-08T01:39:53.952Z,23.13
2023-05-08T01:40:53.958Z,23.13
2023-05-08T01:41:53.942Z,23.13
2023-05-08T01:42:53.949Z,23.13
2023-05-08T01:43:53.945Z,23.13
2023-05-08T01:44:53.955Z,23.14
2023-05-08T01:45:53.969Z,23.13
2023-05-08T01:46:54.000Z,23.13
2023-05-08T01:47:53.959Z,23.13
2023-05-08T01:48:53.938Z,23.13
2023-05-08T01:49:53.948Z,23.13
2023-05-08T01:50:53.945Z,23.13
2023-05-08T01:51:53.978Z,23.13
2023-05-08T01:52:53.957Z,23.13
2023-05-08T01:53:53.941Z,23.14
2023-05-08T01:54:53.947Z,23.13
2023-05-08T01:55:53.961Z,23.14
2023-05-08T01:56:53.943Z,23.13
2023-05-08T01:57:53.930Z,23.12
2023-05-08T01:58:53.940Z,23.13
2023-05-08T01:59:54.192Z,23.13
2023-05-08T02:00:53.956Z,23.13
2023-05-08T02:01:54.001Z,23.13
2023-05-08T02:02:54.040Z,23.13
2023-05-08T02:03:54.018Z,23.13
2023-05-08T02:04:53.950Z,23.13
2023-05-08T02:05:53.978Z,23.13
2023-05-08T02:06:53.991Z,23.13
2023-05-08T02:07:53.972Z,23.13
2023-05-08T02:08:53.968Z,23.12
2023-05-08T02:09:53.989Z,23.12
2023-05-08T02:10:53.958Z,23.12
2023-05-08T02:11:53.977Z,23.12
2023-05-08T02:12:54.011Z,23.13
2023-05-08T02:13:54.003Z,23.13
2023-05-08T02:14:54.045Z,23.14
2023-05-08T02:15:53.993Z,23.12
2023-05-08T02:16:54.035Z,23.13
2023-05-08T02:17:54.050Z,23.13
2023-05-08T02:18:54.021Z,23.13
2023-05-08T02:19:54.009Z,23.14
2023-05-08T02:20:54.023Z,23.12
2023-05-08T02:21:54.008Z,23.12
2023-05-08T02:22:53.997Z,23.12
2023-05-08T02:23:54.028Z,23.12
2023-05-08T02:24:54.017Z,23.12
2023-05-08T02:25:54.031Z,23.12
2023-05-08T02:26:54.028Z,23.12
2023-05-08T02:27:54.037Z,23.11
2023-05-08T02:28:54.028Z,23.12
2023-05-08T02:29:54.060Z,23.12
2023-05-08T02:30:54.008Z,23.13
2023-05-08T02:31:54.053Z,23.12
2023-05-08T02:32:54.103Z,23.13
2023-05-08T02:33:54.020Z,23.12
2023-05-08T02:35:02.343Z,23.12
2023-05-08T02:35:55.042Z,23.12
2023-05-08T02:36:54.016Z,23.12
2023-05-08T02:37:53.989Z,23.12
2023-05-08T02:38:53.990Z,23.12
2023-05-08T02:39:53.996Z,23.12
2023-05-08T02:40:53.992Z,23.13
2023-05-08T02:41:54.000Z,23.12
2023-05-08T02:42:53.953Z,23.13
2023-05-08T02:43:53.973Z,23.12
2023-05-08T02:44:53.999Z,23.13
2023-05-08T02:45:54.027Z,23.12
2023-05-08T02:46:53.971Z,23.12
2023-05-08T02:47:53.983Z,23.12
2023-05-08T02:48:53.949Z,23.12
2023-05-08T02:49:53.921Z,23.12
2023-05-08T02:50:53.907Z,23.12
2023-05-08T02:51:54.286Z,23.12
2023-05-08T02:52:53.919Z,23.12
2023-05-08T02:53:53.899Z,23.12
2023-05-08T02:54:53.903Z,23.11
2023-05-08T02:55:53.873Z,23.12
2023-05-08T02:56:53.896Z,23.12
2023-05-08T02:57:53.873Z,23.10
2023-05-08T02:58:53.845Z,23.11
2023-05-08T02:59:53.855Z,23.12
2023-05-08T03:00:53.878Z,23.11
2023-05-08T03:01:53.943Z,23.10
2023-05-08T03:02:53.939Z,23.11
2023-05-08T03:03:53.909Z,23.11
2023-05-08T03:04:53.873Z,23.11
2023-05-08T03:05:53.905Z,23.11
2023-05-08T03:06:53.900Z,23.10
2023-05-08T03:07:53.910Z,23.11
2023-05-08T03:08:53.889Z,23.10
2023-05-08T03:09:53.925Z,23.11
2023-05-08T03:10:53.927Z,23.10
2023-05-08T03:11:53.936Z,23.10
2023-05-08T03:12:53.982Z,23.11
2023-05-08T03:13:53.974Z,23.10
2023-05-08T03:14:53.964Z,23.10
2023-05-08T03:15:54.012Z,23.09
2023-05-08T03:16:53.997Z,23.10
2023-05-08T03:17:54.058Z,23.10
2023-05-08T03:18:54.007Z,23.10
2023-05-08T03:19:54.043Z,23.09
2023-05-08T03:20:54.047Z,23.09
2023-05-08T03:21:54.117Z,23.09
2023-05-08T03:22:54.083Z,23.08
2023-05-08T03:23:54.093Z,23.08
2023-05-08T03:24:54.176Z,23.09
2023-05-08T03:25:54.130Z,23.09
2023-05-08T03:26:54.186Z,23.09
2023-05-08T03:27:54.189Z,23.09
2023-05-08T03:28:54.205Z,23.10
2023-05-08T03:29:54.213Z,23.09
2023-05-08T03:30:54.250Z,23.09
2023-05-08T03:31:54.256Z,23.10
2023-05-08T03:32:54.277Z,23.09
2023-05-08T03:33:54.307Z,23.09
2023-05-08T03:34:54.295Z,23.09
2023-05-08T03:35:54.328Z,23.09
2023-05-08T03:36:54.346Z,23.09
2023-05-08T03:37:54.331Z,23.08
2023-05-08T03:38:54.361Z,23.08
2023-05-08T03:39:54.371Z,23.08
2023-05-08T03:40:54.419Z,23.08
2023-05-08T03:41:54.750Z,23.08
2023-05-08T03:42:54.440Z,23.09
2023-05-08T03:43:54.456Z,23.09
2023-05-08T03:44:54.539Z,23.09
2023-05-08T03:45:54.490Z,23.09
2023-05-08T03:46:54.539Z,23.09
2023-05-08T03:47:54.507Z,23.09
2023-05-08T03:48:54.529Z,23.09
2023-05-08T03:49:54.550Z,23.09
2023-05-08T03:50:54.566Z,23.10
2023-05-08T03:51:54.580Z,23.09
2023-05-08T03:52:54.582Z,23.08
2023-05-08T03:53:54.624Z,23.09
2023-05-08T03:54:54.598Z,23.08
2023-05-08T03:55:54.639Z,23.08
2023-05-08T03:56:54.714Z,23.08
2023-05-08T03:57:54.643Z,23.08
2023-05-08T03:58:54.654Z,23.09
2023-05-08T03:59:54.727Z,23.08
2023-05-08T04:00:54.694Z,23.08
2023-05-08T04:01:54.749Z,23.09
2023-05-08T04:02:54.757Z,23.09
2023-05-08T04:03:54.933Z,23.08
2023-05-08T04:04:54.793Z,23.08
2023-05-08T04:05:54.760Z,23.08
2023-05-08T04:06:54.772Z,23.08
2023-05-08T04:07:54.776Z,23.08
2023-05-08T04:08:54.799Z,23.08
2023-05-08T04:09:54.812Z,23.08
2023-05-08T04:11:28.300Z,23.08
2023-05-08T04:12:28.296Z,23.08
2023-05-08T04:13:28.318Z,23.09
2023-05-08T04:14:28.294Z,23.08
2023-05-08T04:15:28.313Z,23.08
2023-05-08T04:16:28.315Z,23.09
2023-05-08T04:17:28.314Z,23.08
2023-05-08T04:18:28.282Z,23.08
2023-05-08T04:19:28.242Z,23.09
2023-05-08T04:20:28.263Z,23.08
2023-05-08T04:21:28.231Z,23.08
2023-05-08T04:22:28.217Z,23.09
2023-05-08T04:23:28.265Z,23.08
2023-05-08T04:24:28.216Z,23.08
2023-05-08T04:25:28.208Z,23.08
2023-05-08T04:26:28.222Z,23.08
2023-05-08T04:27:28.227Z,23.08
2023-05-08T04:28:28.204Z,23.08
2023-05-08T04:29:28.185Z,23.08
2023-05-08T04:30:28.167Z,23.08
2023-05-08T04:31:28.251Z,23.07
2023-05-08T04:32:28.193Z,23.07
2023-05-08T04:33:28.201Z,23.08
2023-05-08T04:34:28.139Z,23.08
2023-05-08T04:35:28.142Z,23.08
2023-05-08T04:36:28.143Z,23.08
2023-05-08T04:37:28.145Z,23.08
2023-05-08T04:38:28.128Z,23.08
2023-05-08T04:39:28.114Z,23.07
2023-05-08T04:40:28.102Z,23.07
2023-05-08T04:41:28.115Z,23.08
2023-05-08T04:42:28.112Z,23.07
2023-05-08T04:43:28.079Z,23.07
2023-05-08T04:44:28.083Z,23.07
2023-05-08T04:45:28.060Z,23.08
2023-05-08T04:46:28.092Z,23.08
2023-05-08T04:47:28.175Z,23.08
2023-05-08T04:48:28.049Z,23.08
2023-05-08T04:49:28.079Z,23.08
2023-05-08T04:50:28.042Z,23.08
2023-05-08T04:51:28.031Z,23.08
2023-05-08T04:52:28.029Z,23.08
2023-05-08T04:53:28.064Z,23.08
2023-05-08T04:54:28.029Z,23.08
2023-05-08T04:55:28.036Z,23.07
2023-05-08T04:56:28.002Z,23.07
2023-05-08T04:57:28.008Z,23.07
2023-05-08T04:58:27.996Z,23.07
2023-05-08T04:59:27.980Z,23.07
2023-05-08T05:00:28.031Z,23.07
2023-05-08T05:01:28.037Z,23.07
2023-05-08T05:02:27.979Z,23.07
2023-05-08T05:03:27.993Z,23.07
2023-05-08T05:04:27.952Z,23.07
2023-05-08T05:05:27.940Z,23.07
2023-05-08T05:06:27.944Z,23.07
2023-05-08T05:07:27.919Z,23.06
2023-05-08T05:08:27.922Z,23.07
2023-05-08T05:09:27.928Z,23.06
2023-05-08T05:10:27.878Z,23.06
2023-05-08T05:11:28.025Z,23.06
2023-05-08T05:12:27.882Z,23.07
2023-05-08T05:13:27.931Z,23.06
2023-05-08T05:14:27.877Z,23.06
2023-05-08T05:15:27.883Z,23.06
2023-05-08T05:16:27.914Z,23.06
2023-05-08T05:17:27.902Z,23.06
2023-05-08T05:18:27.828Z,23.05
2023-05-08T05:19:27.862Z,23.06
2023-05-08T05:20:27.826Z,23.06
2023-05-08T05:21:27.806Z,23.06
2023-05-08T05:22:27.875Z,23.06
2023-05-08T05:23:27.799Z,23.06
2023-05-08T05:24:27.863Z,23.05
2023-05-08T05:25:27.808Z,23.05
2023-05-08T05:26:27.785Z,23.05
2023-05-08T05:27:27.790Z,23.06
2023-05-08T05:28:27.809Z,23.06
2023-05-08T05:29:27.870Z,23.05
2023-05-08T05:30:27.765Z,23.06
2023-05-08T05:31:27.808Z,23.06
2023-05-08T05:32:27.926Z,23.05
2023-05-08T05:33:27.716Z,23.06
2023-05-08T05:34:27.756Z,23.06
2023-05-08T05:35:27.717Z,23.07
2023-05-08T05:36:27.704Z,23.09
2023-05-08T05:37:28.529Z,23.12
2023-05-08T05:38:27.687Z,23.13
2023-05-08T05:39:27.685Z,23.15
2023-05-08T05:40:27.736Z,23.17
2023-05-08T05:41:27.866Z,23.21
2023-05-08T05:42:27.679Z,23.25
2023-05-08T05:43:27.660Z,23.34
2023-05-08T05:44:27.670Z,23.40
2023-05-08T05:45:27.683Z,23.45
2023-05-08T05:46:27.785Z,23.51
2023-05-08T05:47:27.792Z,23.55
2023-05-08T05:48:27.904Z,23.60
2023-05-08T05:49:27.855Z,23.64
2023-05-08T05:50:28.067Z,23.68
2023-05-08T05:51:27.982Z,23.71
2023-05-08T05:52:28.037Z,23.77
2023-05-08T05:53:28.072Z,23.81
2023-05-08T05:54:28.121Z,23.85
2023-05-08T05:55:28.252Z,23.89
2023-05-08T05:56:28.301Z,23.92
2023-05-08T05:57:28.246Z,23.95
2023-05-08T05:58:28.291Z,23.97
2023-05-08T05:59:28.390Z,24.02
2023-05-08T06:00:28.415Z,24.04
2023-05-08T06:01:28.380Z,24.06
2023-05-08T06:02:28.444Z,24.09
2023-05-08T06:03:28.570Z,24.12
2023-05-08T06:04:28.608Z,24.15
2023-05-08T06:05:28.469Z,24.17
2023-05-08T06:06:28.465Z,24.20
2023-05-08T06:07:28.498Z,24.22
2023-05-08T06:08:28.462Z,24.26
2023-05-08T06:09:28.473Z,24.29
2023-05-08T06:10:28.517Z,24.31
2023-05-08T06:11:28.497Z,24.33
2023-05-08T06:12:28.583Z,24.36
2023-05-08T06:13:28.594Z,24.38
2023-05-08T06:14:28.521Z,24.40
2023-05-08T06:15:28.499Z,24.43
2023-05-08T06:16:28.496Z,24.45
2023-05-08T06:17:28.545Z,24.47
2023-05-08T06:18:28.491Z,24.48
2023-05-08T06:19:28.511Z,24.50
2023-05-08T06:20:28.570Z,24.52
2023-05-08T06:21:28.568Z,24.54
2023-05-08T06:22:28.631Z,24.57
2023-05-08T06:23:28.644Z,24.59
2023-05-08T06:24:28.645Z,24.61
2023-05-08T06:25:28.667Z,24.62
2023-05-08T06:26:28.749Z,24.63
2023-05-08T06:27:28.660Z,24.65
2023-05-08T06:28:28.742Z,24.65
2023-05-08T06:29:28.649Z,24.66
2023-05-08T06:30:28.706Z,24.68
2023-05-08T06:31:28.880Z,24.70
2023-05-08T06:32:28.797Z,24.72
2023-05-08T06:33:28.786Z,24.72
2023-05-08T06:34:28.837Z,24.74
2023-05-08T06:35:28.899Z,24.75
2023-05-08T06:36:28.882Z,24.73
2023-05-08T06:37:28.894Z,24.68
2023-05-08T06:38:28.929Z,24.64
2023-05-08T06:39:28.890Z,24.61
2023-05-08T06:40:28.906Z,24.58
2023-05-08T06:41:29.037Z,24.56
2023-05-08T06:42:28.908Z,24.55
2023-05-08T06:43:28.900Z,24.56
2023-05-08T06:44:28.905Z,24.58
2023-05-08T06:45:28.898Z,24.57
2023-05-08T06:46:28.932Z,24.58
2023-05-08T06:47:29.117Z,24.58
2023-05-08T06:48:28.949Z,24.54
2023-05-08T06:49:28.909Z,24.52
2023-05-08T06:50:28.944Z,24.52
2023-05-08T06:51:28.921Z,24.52
2023-05-08T06:52:29.012Z,24.52
2023-05-08T06:53:28.957Z,24.52
2023-05-08T06:54:28.940Z,24.51
2023-05-08T06:55:28.943Z,24.50
2023-05-08T06:56:29.039Z,24.50
2023-05-08T06:57:29.010Z,24.50
2023-05-08T06:58:28.931Z,24.50
2023-05-08T06:59:28.909Z,24.50
2023-05-08T07:00:28.974Z,24.50
2023-05-08T07:01:28.989Z,24.51
2023-05-08T07:02:29.012Z,24.52
2023-05-08T07:03:28.931Z,24.56
2023-05-08T07:04:30.834Z,24.59
2023-05-08T07:05:28.923Z,24.61
2023-05-08T07:06:28.931Z,24.65
2023-05-08T07:07:28.958Z,24.68
2023-05-08T07:08:28.925Z,24.70
2023-05-08T07:09:28.884Z,24.75
2023-05-08T07:10:28.903Z,24.77
2023-05-08T07:11:28.914Z,24.80
2023-05-08T07:12:29.064Z,24.83
2023-05-08T07:13:28.979Z,24.85
2023-05-08T07:14:28.884Z,24.87
2023-05-08T07:15:29.045Z,24.88
2023-05-08T07:16:28.936Z,24.87
2023-05-08T07:17:28.901Z,24.83
2023-05-08T07:18:28.846Z,24.78
2023-05-08T07:19:28.839Z,24.77
2023-05-08T07:20:28.938Z,24.76
2023-05-08T07:21:28.854Z,24.73
2023-05-08T07:22:28.924Z,24.71
2023-05-08T07:23:28.824Z,24.59
2023-05-08T07:24:28.802Z,24.49
2023-05-08T07:25:28.827Z,24.43
2023-05-08T07:26:28.771Z,24.38
2023-05-08T07:27:28.800Z,24.33
2023-05-08T07:28:28.773Z,24.37
2023-05-08T07:29:28.760Z,24.38
2023-05-08T07:30:28.771Z,24.40
2023-05-08T07:31:28.790Z,24.44
2023-05-08T07:32:28.804Z,24.46
2023-05-08T07:33:28.726Z,24.34
2023-05-08T07:34:28.728Z,24.32
2023-05-08T07:35:29.561Z,24.32
2023-05-08T07:36:28.718Z,24.32
2023-05-08T07:37:28.709Z,24.34
2023-05-08T07:38:29.056Z,24.38
2023-05-08T07:39:28.692Z,24.42
2023-05-08T07:40:28.827Z,24.43
2023-05-08T07:41:28.712Z,24.44
2023-05-08T07:42:28.685Z,24.45
2023-05-08T07:43:29.557Z,24.45
2023-05-08T07:44:28.673Z,24.45
2023-05-08T07:45:29.590Z,24.46
2023-05-08T07:46:28.697Z,24.41
2023-05-08T07:47:28.669Z,24.41
2023-05-08T07:48:28.615Z,24.38
2023-05-08T07:49:28.601Z,24.35
2023-05-08T07:50:29.100Z,24.34
2023-05-08T07:51:28.641Z,24.33
2023-05-08T07:52:28.606Z,24.33
2023-05-08T07:53:28.975Z,24.31
2023-05-08T07:54:28.586Z,24.32
2023-05-08T07:55:28.562Z,24.34
2023-05-08T07:56:28.550Z,24.38
2023-05-08T07:57:28.611Z,24.39
2023-05-08T07:58:28.560Z,24.38
2023-05-08T07:59:28.581Z,24.38
2023-05-08T08:00:28.538Z,24.38
2023-05-08T08:01:28.865Z,24.36
2023-05-08T08:03:28.660Z,24.35
2023-05-08T08:04:28.618Z,24.36
2023-05-08T08:05:28.519Z,24.39
2023-05-08T08:06:28.493Z,24.38
2023-05-08T08:07:28.526Z,24.36
2023-05-08T08:08:28.493Z,24.37
2023-05-08T08:09:28.464Z,24.36
2023-05-08T08:10:28.531Z,24.37
2023-05-08T08:11:28.502Z,24.37
2023-05-08T08:12:28.529Z,24.35
2023-05-08T08:13:28.567Z,24.39
2023-05-08T08:14:28.475Z,24.41
2023-05-08T08:15:28.478Z,24.41
2023-05-08T08:16:28.470Z,24.37
2023-05-08T08:17:28.828Z,24.41
2023-05-08T08:18:28.459Z,24.42
2023-05-08T08:19:28.393Z,24.42
2023-05-08T08:20:28.467Z,24.45
2023-05-08T08:21:28.414Z,24.45
2023-05-08T08:22:28.424Z,24.48
2023-05-08T08:23:28.366Z,24.47
2023-05-08T08:24:28.398Z,24.43
2023-05-08T08:25:28.400Z,24.41
2023-05-08T08:26:28.364Z,24.37
2023-05-08T08:27:28.360Z,24.34
2023-05-08T08:28:28.422Z,24.30
2023-05-08T08:29:28.419Z,24.27
2023-05-08T08:30:28.360Z,24.22
2023-05-08T08:31:28.357Z,24.19
2023-05-08T08:32:28.339Z,24.15
2023-05-08T08:33:28.327Z,24.12
2023-05-08T08:34:28.315Z,24.09
2023-05-08T08:35:28.361Z,24.04
2023-05-08T08:36:28.296Z,24.00
2023-05-08T08:37:28.282Z,23.98
2023-05-08T08:38:28.269Z,23.95
2023-05-08T08:39:28.256Z,23.92
2023-05-08T08:40:28.288Z,23.89
2023-05-08T08:41:28.233Z,23.87
2023-05-08T08:42:28.238Z,23.87
2023-05-08T08:43:29.094Z,23.90
2023-05-08T08:44:28.336Z,23.94
2023-05-08T08:45:28.219Z,23.98
2023-05-08T08:46:28.313Z,24.01
2023-05-08T08:47:28.228Z,24.07
2023-05-08T08:48:28.277Z,24.12
2023-05-08T08:49:28.176Z,24.17
2023-05-08T08:50:28.203Z,24.21
2023-05-08T08:51:28.209Z,24.24
2023-05-08T08:52:28.194Z,24.29
2023-05-08T08:53:28.264Z,24.32
2023-05-08T08:54:28.291Z,24.33
2023-05-08T08:55:28.293Z,24.38
2023-05-08T08:56:28.207Z,24.39
2023-05-08T08:57:28.232Z,24.42
2023-05-08T08:58:28.201Z,24.46
2023-05-08T08:59:29.141Z,24.48
2023-05-08T09:00:28.369Z,24.51
2023-05-08T09:01:28.265Z,24.54
2023-05-08T09:02:28.355Z,24.55
2023-05-08T09:03:28.295Z,24.58
2023-05-08T09:04:28.257Z,24.58
2023-05-08T09:05:28.233Z,24.59
2023-05-08T09:06:28.251Z,24.61
2023-05-08T09:07:28.246Z,24.62
2023-05-08T09:08:28.224Z,24.63
2023-05-08T09:09:28.244Z,24.64
2023-05-08T09:10:28.225Z,24.65
2023-05-08T09:11:28.218Z,24.65
2023-05-08T09:12:28.222Z,24.66
2023-05-08T09:13:28.374Z,24.67
2023-05-08T09:14:28.191Z,24.67
2023-05-08T09:15:28.198Z,24.70
2023-05-08T09:16:28.419Z,24.72
2023-05-08T09:17:28.232Z,24.74
2023-05-08T09:18:28.191Z,24.75
2023-05-08T09:19:29.211Z,24.75
2023-05-08T09:20:28.205Z,24.77
2023-05-08T09:21:28.259Z,24.78
2023-05-08T09:22:28.241Z,24.79
2023-05-08T09:23:28.290Z,24.70
2023-05-08T09:24:30.621Z,24.65
2023-05-08T09:25:28.368Z,24.55
2023-05-08T09:26:28.308Z,24.50
2023-05-08T09:27:28.326Z,24.49
2023-05-08T09:28:28.286Z,24.53
2023-05-08T09:29:29.090Z,24.60
2023-05-08T09:30:28.261Z,24.65
2023-05-08T09:31:28.995Z,24.67
2023-05-08T09:32:28.380Z,24.70
2023-05-08T09:33:28.291Z,24.73
2023-05-08T09:34:28.319Z,24.74
2023-05-08T09:35:28.225Z,24.75
2023-05-08T09:36:28.653Z,24.78
2023-05-08T09:37:28.264Z,24.80
2023-05-08T09:38:28.203Z,24.82
2023-05-08T09:39:28.226Z,24.84
2023-05-08T09:40:28.217Z,24.87
2023-05-08T09:41:28.637Z,24.89
2023-05-08T09:42:28.234Z,24.92
2023-05-08T09:43:28.608Z,24.92
2023-05-08T09:44:28.266Z,24.87
2023-05-08T09:45:28.328Z,24.78
2023-05-08T09:46:28.303Z,24.72
2023-05-08T09:47:28.361Z,24.69
2023-05-08T09:48:28.353Z,24.67
2023-05-08T09:49:28.238Z,24.65
2023-05-08T09:50:28.312Z,24.63
2023-05-08T09:51:28.259Z,24.62
2023-05-08T09:52:28.255Z,24.60
2023-05-08T09:53:29.124Z,24.56
2023-05-08T09:54:28.268Z,24.53
2023-05-08T09:55:28.280Z,24.51
2023-05-08T09:56:28.259Z,24.52
2023-05-08T09:57:28.292Z,24.55
2023-05-08T09:58:28.633Z,24.55
2023-05-08T09:59:28.273Z,24.56
2023-05-08T10:00:28.289Z,24.57
2023-05-08T10:01:28.356Z,24.59
2023-05-08T10:02:28.318Z,24.60
2023-05-08T10:03:28.295Z,24.62
2023-05-08T10:04:28.339Z,24.61
2023-05-08T10:05:28.367Z,24.62
2023-05-08T10:06:28.325Z,24.58
2023-05-08T10:07:28.334Z,24.55
2023-05-08T10:08:28.363Z,24.57
2023-05-08T10:09:35.649Z,24.55
2023-05-08T10:10:29.313Z,24.57
2023-05-08T10:11:28.306Z,24.61
2023-05-08T10:12:28.362Z,24.64
2023-05-08T10:13:28.402Z,24.65
2023-05-08T10:14:28.291Z,24.64
2023-05-08T10:15:28.260Z,24.66
2023-05-08T10:16:28.383Z,24.66
2023-05-08T10:17:28.310Z,24.70
2023-05-08T10:18:28.261Z,24.73
2023-05-08T10:19:28.273Z,24.75
2023-05-08T10:20:28.347Z,24.78
2023-05-08T10:21:28.237Z,24.81
2023-05-08T10:22:28.249Z,24.86
2023-05-08T10:23:28.223Z,24.88
2023-05-08T10:24:28.220Z,24.89
2023-05-08T10:25:28.191Z,24.92
2023-05-08T10:26:28.209Z,24.93
2023-05-08T10:27:28.201Z,24.93
2023-05-08T10:28:28.171Z,24.96
2023-05-08T10:29:28.282Z,24.96
2023-05-08T10:30:28.299Z,24.97
2023-05-08T10:31:28.485Z,24.96
2023-05-08T10:32:28.437Z,24.95
2023-05-08T10:33:30.884Z,24.91
2023-05-08T10:34:28.752Z,24.89
2023-05-08T10:35:28.769Z,24.87
2023-05-08T10:36:30.970Z,24.84
2023-05-08T10:37:28.868Z,24.81
2023-05-08T10:38:28.850Z,24.79
2023-05-08T10:39:28.856Z,24.76
2023-05-08T10:40:28.909Z,24.74
2023-05-08T10:41:28.826Z,24.73
2023-05-08T10:42:28.804Z,24.70
2023-05-08T10:43:28.898Z,24.68
2023-05-08T10:44:28.840Z,24.67
2023-05-08T10:45:28.819Z,24.66
2023-05-08T10:46:28.855Z,24.65
2023-05-08T10:47:28.868Z,24.65
2023-05-08T10:48:28.818Z,24.64
2023-05-08T10:49:28.821Z,24.65
2023-05-08T10:50:28.823Z,24.65
2023-05-08T10:51:28.843Z,24.64
2023-05-08T10:52:28.859Z,24.64
2023-05-08T10:53:28.852Z,24.63
2023-05-08T10:54:29.777Z,24.63
2023-05-08T10:55:28.831Z,24.63
2023-05-08T10:56:28.999Z,24.63
2023-05-08T10:57:28.862Z,24.63
2023-05-08T10:58:28.895Z,24.63
2023-05-08T10:59:28.864Z,24.62
2023-05-08T11:00:28.860Z,24.62
2023-05-08T11:01:28.905Z,24.62
2023-05-08T11:02:28.995Z,24.61
2023-05-08T11:03:32.723Z,24.61
2023-05-08T11:04:29.011Z,24.62
2023-05-08T11:05:28.866Z,24.63
2023-05-08T11:06:28.835Z,24.63
2023-05-08T11:07:28.829Z,24.63
2023-05-08T11:08:29.223Z,24.63
2023-05-08T11:09:28.839Z,24.63
2023-05-08T11:10:28.833Z,24.64
2023-05-08T11:11:28.809Z,24.64
2023-05-08T11:12:28.816Z,24.63
2023-05-08T11:13:28.916Z,24.64
2023-05-08T11:14:28.778Z,24.62
2023-05-08T11:15:28.820Z,24.62
2023-05-08T11:16:28.844Z,24.62
2023-05-08T11:17:28.921Z,24.62
2023-05-08T11:18:41.908Z,24.62
2023-05-08T11:19:29.815Z,24.62
2023-05-08T11:20:30.199Z,24.62
2023-05-08T11:21:28.794Z,24.63
2023-05-08T11:22:28.734Z,24.65
2023-05-08T11:23:29.176Z,24.65
2023-05-08T11:24:28.745Z,24.64
2023-05-08T11:25:28.724Z,24.64
2023-05-08T11:26:28.693Z,24.63
2023-05-08T11:27:28.690Z,24.63
2023-05-08T11:28:28.730Z,24.63
2023-05-08T11:29:28.745Z,24.63
2023-05-08T11:30:28.688Z,24.62
2023-05-08T11:31:28.739Z,24.63
2023-05-08T11:32:28.696Z,24.63
2023-05-08T11:33:28.700Z,24.62
2023-05-08T11:34:28.650Z,24.62
2023-05-08T11:35:28.644Z,24.62
2023-05-08T11:36:28.673Z,24.62
2023-05-08T11:37:28.664Z,24.63
2023-05-08T11:38:28.687Z,24.63
2023-05-08T11:39:28.602Z,24.62
2023-05-08T11:40:28.604Z,24.63
2023-05-08T11:41:28.612Z,24.63
2023-05-08T11:42:28.582Z,24.62
2023-05-08T11:43:28.620Z,24.61
2023-05-08T11:44:28.556Z,24.61
2023-05-08T11:45:28.553Z,24.59
2023-05-08T11:46:28.674Z,24.59
2023-05-08T11:47:28.603Z,24.58
2023-05-08T11:48:28.581Z,24.58
2023-05-08T11:49:29.975Z,24.59
2023-05-08T11:50:28.522Z,24.59
2023-05-08T11:51:28.533Z,24.58
2023-05-08T11:52:28.525Z,24.59
2023-05-08T11:53:28.550Z,24.60
2023-05-08T11:54:28.561Z,24.60
2023-05-08T11:55:28.506Z,24.59
2023-05-08T11:56:28.498Z,24.59
2023-05-08T11:57:28.519Z,24.58
2023-05-08T11:58:28.535Z,24.57
2023-05-08T11:59:28.675Z,24.57
2023-05-08T12:00:28.550Z,24.56
2023-05-08T12:01:28.523Z,24.55
2023-05-08T12:02:28.586Z,24.55
2023-05-08T12:03:28.720Z,24.54
2023-05-08T12:04:28.716Z,24.54
2023-05-08T12:05:28.519Z,24.54
2023-05-08T12:06:28.515Z,24.54
2023-05-08T12:07:28.501Z,24.52
2023-05-08T12:08:28.520Z,24.52
2023-05-08T12:09:28.522Z,24.52
2023-05-08T12:10:28.535Z,24.52
2023-05-08T12:11:28.520Z,24.52
2023-05-08T12:12:28.526Z,24.51
2023-05-08T12:13:28.731Z,24.51
2023-05-08T12:14:28.532Z,24.50
2023-05-08T12:15:28.499Z,24.49
2023-05-08T12:16:28.652Z,24.49
2023-05-08T12:17:28.546Z,24.49
2023-05-08T12:18:28.486Z,24.49
2023-05-08T12:19:28.504Z,24.49
2023-05-08T12:20:28.491Z,24.49
2023-05-08T12:21:28.508Z,24.48
2023-05-08T12:22:28.513Z,24.49
2023-05-08T12:23:28.497Z,24.50
2023-05-08T12:24:28.518Z,24.49
2023-05-08T12:25:28.510Z,24.50
2023-05-08T12:26:28.515Z,24.50
2023-05-08T12:27:28.539Z,24.52
2023-05-08T12:28:28.520Z,24.50
2023-05-08T12:29:28.555Z,24.51
2023-05-08T12:30:28.528Z,24.49
2023-05-08T12:31:28.560Z,24.50
2023-05-08T12:32:29.197Z,24.50
2023-05-08T12:33:28.510Z,24.44
2023-05-08T12:34:28.537Z,24.42
2023-05-08T12:35:28.526Z,24.38
2023-05-08T12:36:28.529Z,24.37
2023-05-08T12:37:28.546Z,24.42
2023-05-08T12:38:28.537Z,24.45
2023-05-08T12:39:28.527Z,24.45
2023-05-08T12:40:28.597Z,24.46
2023-05-08T12:41:28.584Z,24.45
2023-05-08T12:42:28.546Z,24.44
2023-05-08T12:43:28.533Z,24.38
2023-05-08T12:44:28.586Z,24.38
2023-05-08T12:45:28.546Z,24.39
2023-05-08T12:46:28.640Z,24.42
2023-05-08T12:47:28.617Z,24.41
2023-05-08T12:48:28.716Z,24.43
2023-05-08T12:49:28.585Z,24.46
2023-05-08T12:50:28.589Z,24.49
2023-05-08T12:51:28.586Z,24.50
2023-05-08T12:52:28.572Z,24.51
2023-05-08T12:53:28.589Z,24.55
2023-05-08T12:54:28.606Z,24.51